Time;durP1;ratioP1;P1;durP2;ratioP2;P2;SDS_P1;SDS_P2;PMS_P1;PMS_P2;Temp;Humidity;BMP_temperature;BMP_pressure;BME280_temperature;BME280_humidity;BME280_pressure;Samples;Min_cycle;Max_cycle;Signal;HPM_P1;HPM_P2
2022/06/28 00:00:27;;;;;;;8.88;4.18;;;19.10;90.30;;;;;;5071028;28;20629;-66
2022/06/28 00:02:53;;;;;;;7.70;4.10;;;19.10;90.30;;;;;;5071571;28;20495;-66
2022/06/28 00:05:19;;;;;;;11.38;4.80;;;19.10;90.30;;;;;;5073291;28;20048;-66
2022/06/28 00:07:45;;;;;;;10.75;4.65;;;19.00;90.30;;;;;;5073320;28;20025;-66
2022/06/28 00:10:12;;;;;;;7.93;3.97;;;19.00;90.20;;;;;;5055152;28;20025;-66
2022/06/28 00:12:39;;;;;;;8.27;4.50;;;19.00;90.30;;;;;;5067630;28;20032;-66
2022/06/28 00:18:00;;;;;;;7.25;4.93;;;18.90;90.40;;;;;;5059347;28;20115;-66
2022/06/28 00:20:26;;;;;;;12.80;6.22;;;18.90;90.40;;;;;;5073707;28;20063;-66
2022/06/28 00:22:52;;;;;;;9.80;4.88;;;18.80;90.50;;;;;;5071659;28;20025;-66
2022/06/28 00:25:18;;;;;;;7.93;5.47;;;18.80;90.60;;;;;;5072441;28;20048;-66
2022/06/28 00:27:44;;;;;;;8.95;5.22;;;18.80;90.60;;;;;;5055612;28;20036;-66
2022/06/28 00:30:12;;;;;;;11.82;5.90;;;18.80;90.70;;;;;;5063879;28;20032;-66
2022/06/28 00:32:39;;;;;;;8.50;5.35;;;18.80;90.70;;;;;;5071268;28;20628;-66
2022/06/28 00:35:05;;;;;;;7.40;5.32;;;18.80;90.70;;;;;;5072753;28;20078;-66
2022/06/28 00:37:31;;;;;;;9.65;5.22;;;18.70;90.70;;;;;;5072455;28;20500;-66
2022/06/28 00:40:00;;;;;;;9.75;5.65;;;18.80;90.80;;;;;;5073065;28;20046;-66
2022/06/28 00:42:27;;;;;;;7.72;5.50;;;18.70;90.70;;;;;;5061521;28;20096;-66
2022/06/28 00:44:53;;;;;;;8.18;5.45;;;18.70;90.80;;;;;;5065617;28;20357;-66
2022/06/28 00:47:18;;;;;;;9.15;5.65;;;18.70;90.90;;;;;;5072030;28;20036;-66
2022/06/28 00:49:44;;;;;;;13.30;5.68;;;18.70;90.90;;;;;;5063296;28;20021;-66
2022/06/28 00:52:12;;;;;;;12.95;5.78;;;18.70;91.00;;;;;;5059597;28;20408;-66
2022/06/28 00:54:38;;;;;;;14.57;5.80;;;18.60;91.00;;;;;;5058941;28;20036;-66
2022/06/28 00:57:07;;;;;;;11.98;5.75;;;18.60;91.00;;;;;;5060955;28;20024;-66
2022/06/28 00:59:33;;;;;;;8.30;6.05;;;18.70;91.10;;;;;;5058602;28;20033;-66
2022/06/28 01:02:01;;;;;;;10.48;6.68;;;18.60;91.10;;;;;;5071299;28;20036;-66
2022/06/28 01:04:27;;;;;;;8.38;6.15;;;18.60;91.20;;;;;;5058295;28;20099;-66
2022/06/28 01:06:54;;;;;;;13.23;7.82;;;18.60;91.20;;;;;;5055906;28;20387;-66
2022/06/28 01:09:21;;;;;;;11.50;6.32;;;18.60;91.30;;;;;;5062768;28;20487;-66
2022/06/28 01:11:47;;;;;;;9.00;6.13;;;18.60;91.30;;;;;;5066240;28;20502;-66
2022/06/28 01:14:14;;;;;;;10.98;6.28;;;18.60;91.40;;;;;;5056443;28;20049;-66
2022/06/28 01:17:06;;;;;;;13.63;6.63;;;18.60;91.40;;;;;;5053401;28;20041;-66
2022/06/28 01:19:52;;;;;;;16.83;6.10;;;18.50;91.70;;;;;;5072605;28;20123;-66
2022/06/28 01:22:40;;;;;;;;;;;18.50;91.40;;;;;;5064273;28;20029;-66
2022/06/28 01:25:11;;;;;;;9.32;6.93;;;18.50;91.20;;;;;;5050986;28;19908;-66
2022/06/28 01:27:40;;;;;;;11.93;6.70;;;18.50;91.50;;;;;;5067074;28;20021;-66
2022/06/28 01:30:08;;;;;;;13.43;7.05;;;18.40;91.30;;;;;;5060857;28;20650;-66
2022/06/28 01:32:55;;;;;;;9.75;6.80;;;18.40;91.40;;;;;;5051984;28;20035;-66
2022/06/28 01:35:21;;;;;;;15.02;6.60;;;18.40;91.40;;;;;;5068991;28;20036;-66
2022/06/28 01:37:49;;;;;;;8.95;6.10;;;18.40;91.40;;;;;;5063413;28;20025;-66
2022/06/28 01:40:16;;;;;;;10.18;6.28;;;18.40;91.50;;;;;;5060121;28;20488;-66
2022/06/28 01:42:44;;;;;;;8.05;5.80;;;18.30;91.40;;;;;;5060521;28;20028;-66
2022/06/28 01:45:10;;;;;;;10.07;6.18;;;18.30;91.40;;;;;;5070494;28;20090;-66
2022/06/28 01:47:44;;;;;;;13.27;6.75;;;18.30;91.50;;;;;;5066283;28;20426;-66
2022/06/28 01:50:31;;;;;;;10.43;6.18;;;18.30;91.50;;;;;;5072003;28;20423;-66
2022/06/28 01:52:57;;;;;;;13.18;6.60;;;18.30;91.50;;;;;;5059051;28;20066;-66
2022/06/28 01:55:41;;;;;;;11.10;5.95;;;18.20;91.60;;;;;;5069749;28;20414;-66
2022/06/28 01:58:19;;;;;;;10.63;6.07;;;18.20;91.50;;;;;;5060430;28;20056;-66
2022/06/28 02:00:46;;;;;;;13.93;6.82;;;18.20;91.60;;;;;;5054395;28;20036;-66
2022/06/28 02:03:12;;;;;;;9.85;6.68;;;18.20;91.70;;;;;;5059865;28;20032;-66
2022/06/28 02:05:54;;;;;;;8.15;6.22;;;18.20;91.70;;;;;;5070613;28;20450;-66
2022/06/28 02:08:21;;;;;;;9.57;6.20;;;18.20;91.60;;;;;;5058002;28;20025;-66
2022/06/28 02:11:07;;;;;;;11.40;6.50;;;18.20;91.60;;;;;;5060170;28;20092;-66
2022/06/28 02:13:40;;;;;;;11.75;6.13;;;18.20;91.60;;;;;;5065511;28;20077;-66
2022/06/28 02:16:06;;;;;;;11.65;6.53;;;18.10;91.60;;;;;;5051190;28;20032;-66
2022/06/28 02:18:33;;;;;;;13.80;6.30;;;18.10;91.50;;;;;;5055232;28;20035;-66
2022/06/28 02:21:03;;;;;;;10.35;6.20;;;18.10;91.60;;;;;;5064397;28;20430;-66
2022/06/28 02:23:29;;;;;;;10.13;5.60;;;18.10;91.60;;;;;;5070255;28;20032;-66
2022/06/28 02:25:55;;;;;;;9.55;6.40;;;18.10;91.60;;;;;;5057295;28;20033;-66
2022/06/28 02:28:20;;;;;;;10.23;5.25;;;18.10;91.60;;;;;;5069946;28;20166;-66
2022/06/28 02:30:46;;;;;;;10.35;5.43;;;18.10;91.60;;;;;;5071655;28;20039;-67
2022/06/28 02:33:12;;;;;;;10.63;6.03;;;18.00;91.50;;;;;;5067612;28;20032;-66
2022/06/28 02:41:06;;;;;;;9.32;5.80;;;18.00;91.50;;;;;;5052768;28;21208;-66
2022/06/28 02:43:32;;;;;;;9.02;6.05;;;17.90;91.50;;;;;;5062522;28;20108;-66
2022/06/28 02:45:58;;;;;;;12.38;5.85;;;17.90;91.50;;;;;;5066900;28;20035;-66
2022/06/28 02:48:24;;;;;;;7.78;5.03;;;17.90;91.50;;;;;;5060898;28;20041;-65
2022/06/28 02:50:49;;;;;;;11.73;5.35;;;17.90;91.50;;;;;;5058316;28;20029;-65
2022/06/28 02:53:15;;;;;;;11.70;5.90;;;17.90;91.50;;;;;;5065247;28;20040;-65
2022/06/28 02:55:41;;;;;;;11.00;5.80;;;17.80;91.50;;;;;;5069364;28;20473;-66
2022/06/28 02:58:06;;;;;;;11.85;5.50;;;17.90;91.50;;;;;;5069439;28;20033;-66
2022/06/28 03:00:32;;;;;;;11.40;5.68;;;17.80;91.40;;;;;;5071216;28;20388;-67
2022/06/28 03:03:03;;;;;;;8.65;5.65;;;17.80;91.30;;;;;;5067679;28;20029;-65
2022/06/28 03:05:30;;;;;;;7.60;4.90;;;17.80;91.40;;;;;;5062764;28;20056;-65
2022/06/28 03:07:56;;;;;;;10.90;5.47;;;17.70;91.30;;;;;;5054914;28;20089;-66
2022/06/28 03:10:25;;;;;;;7.57;5.55;;;17.70;91.40;;;;;;5061289;28;20024;-66
2022/06/28 03:12:51;;;;;;;9.63;5.30;;;17.70;91.40;;;;;;5059819;28;20036;-65
2022/06/28 03:15:16;;;;;;;9.52;4.90;;;17.70;91.30;;;;;;5061004;28;20027;-65
2022/06/28 03:17:43;;;;;;;8.35;5.32;;;17.70;91.20;;;;;;5059626;28;20165;-66
2022/06/28 03:20:10;;;;;;;10.43;5.32;;;17.60;91.20;;;;;;5062520;28;20111;-66
2022/06/28 03:22:37;;;;;;;7.40;5.20;;;17.60;91.20;;;;;;5067694;28;20025;-66
2022/06/28 03:25:06;;;;;;;8.38;5.95;;;17.60;91.20;;;;;;5064777;28;20100;-66
2022/06/28 03:27:31;;;;;;;8.95;5.65;;;17.50;91.30;;;;;;5065218;28;20039;-65
2022/06/28 03:29:57;;;;;;;10.18;6.22;;;17.60;91.40;;;;;;5067797;28;20017;-65
2022/06/28 03:32:28;;;;;;;8.07;5.50;;;17.50;91.40;;;;;;5065099;28;20065;-66
2022/06/28 03:34:54;;;;;;;8.90;4.97;;;17.50;91.50;;;;;;5069662;28;20103;-66
2022/06/28 03:37:22;;;;;;;9.23;5.32;;;17.50;91.50;;;;;;5053452;28;20543;-66
2022/06/28 03:39:51;;;;;;;15.65;5.55;;;17.50;91.50;;;;;;5066501;28;20119;-66
2022/06/28 03:42:18;;;;;;;9.52;5.00;;;17.50;91.50;;;;;;5070637;28;20085;-66
2022/06/28 03:44:46;;;;;;;9.52;4.95;;;17.50;91.40;;;;;;5073097;28;20045;-65
2022/06/28 03:47:12;;;;;;;12.68;4.72;;;17.50;91.40;;;;;;5071860;28;20063;-65
2022/06/28 03:49:57;;;;;;;8.30;4.40;;;17.40;91.20;;;;;;5071525;28;20138;-66
2022/06/28 03:52:49;;;;;;;7.50;4.57;;;17.50;91.30;;;;;;5066481;28;20044;-66
2022/06/28 03:55:24;;;;;;;12.95;4.72;;;17.40;91.10;;;;;;5069098;28;20418;-65
2022/06/28 03:57:50;;;;;;;8.93;4.78;;;17.40;91.10;;;;;;5066723;28;20037;-66
2022/06/28 04:00:16;;;;;;;7.55;5.05;;;17.40;91.10;;;;;;5073064;28;20162;-65
2022/06/28 04:02:48;;;;;;;10.43;4.60;;;17.30;91.10;;;;;;5060975;28;20476;-66
2022/06/28 04:05:20;;;;;;;8.75;4.88;;;17.30;91.20;;;;;;5066303;28;20041;-66
2022/06/28 04:07:45;;;;;;;8.45;4.60;;;17.30;91.20;;;;;;5072395;28;21390;-65
2022/06/28 04:10:12;;;;;;;11.35;5.40;;;17.30;91.30;;;;;;5062991;28;20075;-65
2022/06/28 04:12:39;;;;;;;7.95;5.05;;;17.30;91.40;;;;;;5068806;28;20036;-65
2022/06/28 04:15:18;;;;;;;8.15;4.63;;;17.30;91.40;;;;;;5059833;28;20393;-65
2022/06/28 04:17:47;;;;;;;9.68;4.45;;;17.30;91.40;;;;;;5061596;28;20025;-66
2022/06/28 04:20:33;;;;;;;8.75;4.45;;;17.30;91.50;;;;;;5063322;28;20044;-66
2022/06/28 04:23:03;;;;;;;9.45;4.90;;;17.30;91.40;;;;;;5068622;28;20027;-65
2022/06/28 04:25:31;;;;;;;8.23;4.25;;;17.30;91.40;;;;;;5061492;28;20090;-65
2022/06/28 04:28:03;;;;;;;9.98;4.95;;;17.30;91.30;;;;;;5064276;28;20036;-66
2022/06/28 04:30:31;;;;;;;8.60;4.60;;;17.20;91.40;;;;;;5064792;28;20033;-66
2022/06/28 04:32:59;;;;;;;11.07;4.28;;;17.30;91.40;;;;;;5051573;28;20029;-66
2022/06/28 04:35:30;;;;;;;17.85;4.53;;;17.20;91.50;;;;;;5060176;28;20115;-65
2022/06/28 04:37:56;;;;;;;8.07;4.30;;;17.20;91.50;;;;;;5064773;28;20029;-65
2022/06/28 04:40:51;;;;;;;9.27;5.10;;;17.20;91.40;;;;;;5055144;28;20044;-65
2022/06/28 04:43:31;;;;;;;8.05;4.97;;;17.20;91.40;;;;;;5055785;28;20116;-67
2022/06/28 04:45:59;;;;;;;8.82;4.75;;;17.20;91.50;;;;;;5068785;28;20039;-67
2022/06/28 04:48:27;;;;;;;12.13;5.13;;;17.30;91.70;;;;;;5068455;28;20028;-65
2022/06/28 04:50:53;;;;;;;6.97;4.85;;;17.30;91.80;;;;;;5064274;28;20041;-65
2022/06/28 04:53:19;;;;;;;8.68;5.30;;;17.30;91.90;;;;;;5069879;28;20028;-65
2022/06/28 04:55:50;;;;;;;14.10;5.68;;;17.30;92.10;;;;;;5066311;28;20044;-65
2022/06/28 04:58:16;;;;;;;7.18;4.78;;;17.30;92.20;;;;;;5065771;28;20470;-64
2022/06/28 05:00:44;;;;;;;8.20;4.97;;;17.30;92.20;;;;;;5068044;28;20040;-64
2022/06/28 05:03:16;;;;;;;7.22;4.40;;;17.30;92.30;;;;;;5060908;28;20479;-64
2022/06/28 05:06:00;;;;;;;13.43;5.20;;;17.40;92.40;;;;;;5068703;28;20043;-64
2022/06/28 05:08:25;;;;;;;8.52;4.00;;;17.40;92.20;;;;;;5072409;28;20016;-65
2022/06/28 05:11:03;;;;;;;6.80;4.60;;;17.40;92.00;;;;;;5060819;28;20439;-65
2022/06/28 05:13:39;;;;;;;10.20;4.10;;;17.40;92.00;;;;;;5059631;28;20040;-65
2022/06/28 05:16:08;;;;;;;7.95;4.10;;;17.40;91.70;;;;;;5061540;28;20450;-65
2022/06/28 05:18:34;;;;;;;9.60;3.90;;;17.40;91.70;;;;;;5055405;28;20024;-64
2022/06/28 05:21:02;;;;;;;13.65;4.32;;;17.40;91.70;;;;;;5056849;28;20131;-65
2022/06/28 05:23:28;;;;;;;7.43;4.10;;;17.40;91.70;;;;;;5065344;28;20091;-65
2022/06/28 05:25:54;;;;;;;9.45;4.57;;;17.40;91.70;;;;;;5067983;28;20173;-64
2022/06/28 05:28:20;;;;;;;9.07;4.28;;;17.30;91.70;;;;;;5055796;28;20017;-64
2022/06/28 05:30:46;;;;;;;7.68;3.92;;;17.30;91.90;;;;;;5068915;28;20137;-63
2022/06/28 05:33:13;;;;;;;10.38;4.00;;;17.40;92.10;;;;;;5066868;28;20384;-63
2022/06/28 05:35:38;;;;;;;8.73;3.97;;;17.40;91.80;;;;;;5056495;28;20052;-63
2022/06/28 05:38:07;;;;;;;7.20;4.00;;;17.40;91.60;;;;;;5061770;28;20028;-63
2022/06/28 05:40:33;;;;;;;7.28;3.50;;;17.40;91.60;;;;;;5070990;28;20481;-63
2022/06/28 05:43:00;;;;;;;8.55;4.18;;;17.40;91.60;;;;;;5061520;28;20468;-64
2022/06/28 05:45:25;;;;;;;9.57;4.13;;;17.40;91.70;;;;;;5071295;28;20031;-64
2022/06/28 05:47:51;;;;;;;7.45;4.38;;;17.40;91.70;;;;;;5057139;28;20025;-63
2022/06/28 05:50:19;;;;;;;11.82;4.22;;;17.40;92.00;;;;;;5055670;28;20033;-63
2022/06/28 05:52:46;;;;;;;10.45;4.03;;;17.50;92.20;;;;;;5071708;28;20380;-64
2022/06/28 05:55:12;;;;;;;9.57;3.83;;;17.50;92.50;;;;;;5059655;28;20021;-63
2022/06/28 05:57:38;;;;;;;9.30;3.38;;;17.60;92.40;;;;;;5058614;28;20032;-63
2022/06/28 06:00:05;;;;;;;10.82;4.18;;;17.60;92.10;;;;;;5069797;28;20403;-64
2022/06/28 06:02:40;;;;;;;8.65;3.72;;;17.60;92.00;;;;;;5063463;28;20041;-63
2022/06/28 06:05:06;;;;;;;9.35;4.70;;;17.60;92.20;;;;;;5064869;28;20076;-63
2022/06/28 06:07:32;;;;;;;11.82;3.88;;;17.70;92.20;;;;;;5071178;28;20459;-63
2022/06/28 06:10:01;;;;;;;14.88;4.00;;;17.60;91.90;;;;;;5053198;28;20024;-64
2022/06/28 06:12:26;;;;;;;6.03;2.58;;;17.60;91.80;;;;;;5059956;28;20465;-63
2022/06/28 06:14:52;;;;;;;7.68;3.15;;;17.60;91.70;;;;;;5052920;28;20036;-63
2022/06/28 06:17:18;;;;;;;5.95;2.78;;;17.60;91.80;;;;;;5059815;28;20021;-63
2022/06/28 06:19:47;;;;;;;7.88;3.28;;;17.60;92.00;;;;;;5067411;28;20029;-63
2022/06/28 06:22:16;;;;;;;7.40;3.38;;;17.60;92.20;;;;;;5056432;28;20051;-63
2022/06/28 06:24:41;;;;;;;11.43;3.33;;;17.60;92.20;;;;;;5070150;28;20111;-63
2022/06/28 06:27:14;;;;;;;8.55;2.90;;;17.70;92.30;;;;;;5062810;28;20448;-63
2022/06/28 06:29:43;;;;;;;6.75;3.25;;;17.70;91.90;;;;;;5065836;28;20028;-63
2022/06/28 06:32:17;;;;;;;6.00;2.58;;;17.70;92.10;;;;;;5068078;28;20020;-63
2022/06/28 06:35:09;;;;;;;11.10;2.85;;;17.70;91.90;;;;;;5070440;28;20036;-63
2022/06/28 06:37:35;;;;;;;7.90;3.38;;;17.70;91.90;;;;;;5069359;28;20032;-63
2022/06/28 06:40:03;;;;;;;8.07;2.38;;;17.80;92.20;;;;;;5050679;28;20027;-63
2022/06/28 06:42:31;;;;;;;15.77;2.83;;;17.80;91.90;;;;;;5063783;28;20063;-64
2022/06/28 06:45:03;;;;;;;14.98;2.55;;;17.80;91.90;;;;;;5069926;28;20108;-64
2022/06/28 06:47:29;;;;;;;14.20;3.33;;;17.70;92.00;;;;;;5070140;28;20051;-63
2022/06/28 06:49:54;;;;;;;9.40;3.22;;;17.80;92.30;;;;;;5069420;28;20025;-63
2022/06/28 06:52:20;;;;;;;4.88;2.55;;;17.80;92.50;;;;;;5068535;28;20086;-63
2022/06/28 06:54:47;;;;;;;8.77;3.30;;;17.80;92.30;;;;;;5070093;28;20033;-63
2022/06/28 06:57:15;;;;;;;7.65;3.08;;;17.90;92.30;;;;;;5066129;28;20031;-63
2022/06/28 06:59:41;;;;;;;19.60;3.47;;;17.90;92.20;;;;;;5071315;28;20032;-64
2022/06/28 07:02:08;;;;;;;3.42;2.65;;;17.90;92.40;;;;;;5067793;28;20504;-64
2022/06/28 07:04:50;;;;;;;8.57;3.10;;;18.00;92.40;;;;;;5069819;28;20075;-63
2022/06/28 07:07:16;;;;;;;4.30;2.05;;;17.90;92.60;;;;;;5064476;28;20500;-63
2022/06/28 07:09:42;;;;;;;5.70;2.42;;;17.90;92.60;;;;;;5052846;28;20075;-63
2022/06/28 07:12:08;;;;;;;3.00;1.30;;;17.90;92.40;;;;;;5071544;28;20024;-63
2022/06/28 07:14:35;;;;;;;6.47;2.05;;;18.00;92.30;;;;;;5062007;28;20033;-63
2022/06/28 07:17:04;;;;;;;7.05;2.83;;;18.00;92.70;;;;;;5073234;28;20032;-63
2022/06/28 07:19:30;;;;;;;4.03;1.70;;;18.00;93.00;;;;;;5073018;28;20380;-64
2022/06/28 07:21:56;;;;;;;5.53;2.30;;;18.00;92.90;;;;;;5060447;28;20131;-63
2022/06/28 07:24:25;;;;;;;13.73;3.35;;;18.00;93.00;;;;;;5074186;28;20020;-64
2022/06/28 07:26:51;;;;;;;6.68;2.15;;;18.00;93.30;;;;;;5059657;28;20107;-63
2022/06/28 07:29:18;;;;;;;7.00;2.67;;;18.00;93.50;;;;;;5071910;28;20032;-63
2022/06/28 07:31:44;;;;;;;8.48;2.58;;;18.00;93.40;;;;;;5071879;28;20016;-64
2022/06/28 07:34:11;;;;;;;4.53;2.28;;;18.10;93.80;;;;;;5072105;28;20040;-64
2022/06/28 07:36:40;;;;;;;7.30;2.30;;;18.00;93.50;;;;;;5058107;28;20077;-63
2022/06/28 07:39:06;;;;;;;6.93;1.98;;;18.10;93.90;;;;;;5071239;28;20476;-63
2022/06/28 07:42:10;;;;;;;1.40;1.20;;;18.10;93.60;;;;;;5073864;28;20052;-64
2022/06/28 07:44:55;;;;;;;6.63;2.15;;;18.10;93.50;;;;;;5057837;28;20060;-64
2022/06/28 07:47:21;;;;;;;5.28;2.17;;;18.10;93.50;;;;;;5054932;28;20500;-64
2022/06/28 07:52:34;;;;;;;7.00;2.10;;;18.20;93.50;;;;;;5066564;28;20475;-63
2022/06/28 07:55:06;;;;;;;5.28;1.90;;;18.20;93.50;;;;;;5062505;28;20028;-63
2022/06/28 07:57:43;;;;;;;10.70;1.38;;;18.30;93.60;;;;;;5054747;28;20384;-64
2022/06/28 08:00:12;;;;;;;8.52;1.63;;;18.30;93.40;;;;;;5065554;28;20127;-64
2022/06/28 08:02:38;;;;;;;8.63;2.38;;;18.30;93.30;;;;;;5061618;28;20069;-64
2022/06/28 08:05:05;;;;;;;9.88;2.20;;;18.30;93.40;;;;;;5072375;28;20098;-63
2022/06/28 08:07:31;;;;;;;1.48;1.02;;;18.40;93.40;;;;;;5071792;28;20025;-64
2022/06/28 08:09:57;;;;;;;5.47;2.00;;;18.50;93.30;;;;;;5072480;28;20024;-64
2022/06/28 08:12:26;;;;;;;5.72;1.52;;;18.50;93.30;;;;;;5071812;28;20491;-64
2022/06/28 08:14:56;;;;;;;5.47;1.90;;;18.50;93.20;;;;;;5057585;28;20029;-63
2022/06/28 08:17:21;;;;;;;8.52;2.03;;;18.50;93.10;;;;;;5071314;28;20032;-64
2022/06/28 08:19:47;;;;;;;4.00;1.17;;;18.50;93.20;;;;;;5073530;28;20507;-64
2022/06/28 08:22:13;;;;;;;9.27;1.73;;;18.60;93.00;;;;;;5070609;28;20510;-63
2022/06/28 08:24:40;;;;;;;2.55;1.10;;;18.60;93.00;;;;;;5072611;28;20029;-64
2022/06/28 08:27:06;;;;;;;2.88;0.68;;;18.60;93.10;;;;;;5066419;28;20036;-64
2022/06/28 08:29:32;;;;;;;5.72;1.63;;;18.70;92.80;;;;;;5065875;28;20391;-64
2022/06/28 08:31:59;;;;;;;1.98;0.98;;;18.60;92.80;;;;;;5073607;28;20031;-63
2022/06/28 08:34:24;;;;;;;4.05;0.95;;;18.70;92.70;;;;;;5073838;28;20024;-64
2022/06/28 08:36:53;;;;;;;3.83;1.30;;;18.70;92.70;;;;;;5071950;28;20115;-63
2022/06/28 08:39:19;;;;;;;3.92;1.00;;;18.80;92.70;;;;;;5072941;28;20024;-63
2022/06/28 08:41:46;;;;;;;10.07;2.03;;;18.80;92.60;;;;;;5074074;28;20040;-64
2022/06/28 08:44:13;;;;;;;3.70;1.42;;;18.90;92.60;;;;;;5070072;28;20792;-64
2022/06/28 08:46:40;;;;;;;5.95;0.90;;;18.90;92.50;;;;;;5063405;28;20379;-63
2022/06/28 08:49:23;;;;;;;2.88;1.17;;;19.00;92.40;;;;;;5070563;28;20033;-63
2022/06/28 08:51:51;;;;;;;0.55;0.55;;;19.10;92.40;;;;;;5065055;28;20028;-64
2022/06/28 08:54:19;;;;;;;3.92;1.30;;;19.10;92.20;;;;;;5070508;28;20123;-65
2022/06/28 08:56:46;;;;;;;8.27;1.77;;;19.10;92.40;;;;;;5068169;28;20024;-65
2022/06/28 08:59:13;;;;;;;11.68;1.88;;;19.10;92.10;;;;;;5068823;28;20070;-65
2022/06/28 09:01:39;;;;;;;7.80;1.65;;;19.20;92.00;;;;;;5072550;28;20051;-65
2022/06/28 09:04:07;;;;;;;4.85;1.17;;;19.20;92.30;;;;;;5071469;28;20025;-65
2022/06/28 09:06:34;;;;;;;3.22;1.08;;;19.20;92.00;;;;;;5068699;28;20041;-65
2022/06/28 09:09:00;;;;;;;5.40;1.42;;;19.30;92.10;;;;;;5070786;28;20017;-64
2022/06/28 09:11:41;;;;;;;4.75;1.23;;;19.40;91.80;;;;;;5064701;28;20521;-64
2022/06/28 09:14:27;;;;;;;9.27;1.15;;;19.40;91.80;;;;;;5071124;28;20027;-64
2022/06/28 09:16:58;;;;;;;8.10;0.93;;;19.50;91.80;;;;;;5067191;28;20480;-64
2022/06/28 09:19:34;;;;;;;5.10;1.33;;;19.50;91.70;;;;;;5071314;28;20035;-64
2022/06/28 09:22:00;;;;;;;3.63;0.90;;;19.50;91.60;;;;;;5072140;28;20048;-64
2022/06/28 09:24:27;;;;;;;6.82;1.27;;;19.60;91.50;;;;;;5068479;28;20024;-64
2022/06/28 09:27:03;;;;;;;4.75;1.30;;;19.60;91.20;;;;;;5070527;28;20078;-64
2022/06/28 09:29:29;;;;;;;3.80;0.85;;;19.60;91.30;;;;;;5069971;28;20088;-64
2022/06/28 09:31:55;;;;;;;2.97;0.80;;;19.70;91.00;;;;;;5070192;28;20519;-64
2022/06/28 09:34:24;;;;;;;1.17;0.80;;;19.70;91.00;;;;;;5069571;28;20111;-64
2022/06/28 09:36:55;;;;;;;3.90;1.02;;;19.80;91.10;;;;;;5068825;28;20032;-64
2022/06/28 09:39:27;;;;;;;4.43;1.05;;;19.80;90.90;;;;;;5072129;28;20173;-64
2022/06/28 09:41:56;;;;;;;2.25;0.85;;;19.80;90.70;;;;;;5068538;28;20037;-64
2022/06/28 09:44:28;;;;;;;2.03;0.70;;;19.80;90.60;;;;;;5068715;28;20031;-64
2022/06/28 09:46:57;;;;;;;1.92;0.43;;;19.80;90.10;;;;;;5070315;28;20028;-64
2022/06/28 09:49:28;;;;;;;2.70;0.75;;;19.80;90.30;;;;;;5063801;28;20503;-64
2022/06/28 09:51:56;;;;;;;2.92;1.30;;;19.80;90.20;;;;;;5070162;28;20031;-64
2022/06/28 09:54:26;;;;;;;0.50;0.35;;;19.90;89.50;;;;;;5066532;28;20162;-64
2022/06/28 09:56:54;;;;;;;9.57;1.42;;;19.90;90.30;;;;;;5066310;28;20036;-64
2022/06/28 09:59:25;;;;;;;2.28;0.70;;;19.90;90.20;;;;;;5068381;28;20032;-64
2022/06/28 10:01:55;;;;;;;0.93;0.43;;;19.90;90.30;;;;;;5061546;28;20048;-65
2022/06/28 10:04:25;;;;;;;3.70;1.00;;;19.90;90.30;;;;;;5069317;28;20044;-64
2022/06/28 10:06:51;;;;;;;2.72;0.80;;;19.90;90.10;;;;;;5070909;28;20028;-64
2022/06/28 10:09:19;;;;;;;4.32;1.20;;;20.00;90.00;;;;;;5068027;28;20095;-64
2022/06/28 10:17:34;;;;;;;3.78;1.00;;;20.10;90.00;;;;;;5069509;28;20024;-65
2022/06/28 10:20:06;;;;;;;2.58;1.27;;;20.10;90.00;;;;;;5069851;28;20032;-67
2022/06/28 10:22:32;;;;;;;2.30;0.60;;;20.20;89.80;;;;;;5061588;28;20045;-66
2022/06/28 10:24:59;;;;;;;3.03;1.15;;;20.20;89.90;;;;;;5062975;28;20354;-66
2022/06/28 10:27:27;;;;;;;3.47;1.00;;;20.30;89.90;;;;;;5070076;28;20119;-66
2022/06/28 10:30:00;;;;;;;0.98;0.73;;;20.40;89.10;;;;;;5070078;28;20019;-66
2022/06/28 10:32:47;;;;;;;0.52;0.52;;;20.40;89.90;;;;;;5060794;28;20036;-66
2022/06/28 10:35:31;;;;;;;1.80;0.60;;;20.50;89.90;;;;;;5058130;28;20036;-66
2022/06/28 10:38:09;;;;;;;3.63;1.20;;;20.50;89.70;;;;;;5057503;28;20024;-66
2022/06/28 10:40:38;;;;;;;4.20;1.23;;;20.60;89.80;;;;;;5071699;28;20575;-66
2022/06/28 10:43:04;;;;;;;4.68;1.10;;;20.60;89.80;;;;;;5070236;28;20425;-66
2022/06/28 10:46:05;;;;;;;5.15;2.03;;;20.70;89.90;;;;;;5058838;28;20060;-66
2022/06/28 10:48:52;;;;;;;6.38;1.50;;;20.80;89.00;;;;;;5062702;28;20038;-66
2022/06/28 10:51:21;;;;;;;6.32;1.50;;;20.80;88.60;;;;;;5052922;28;20029;-65
2022/06/28 10:54:01;;;;;;;2.45;1.30;;;20.90;89.10;;;;;;5070858;28;20029;-66
2022/06/28 10:56:31;;;;;;;4.35;1.25;;;21.00;89.20;;;;;;5070328;28;20029;-64
2022/06/28 10:59:04;;;;;;;5.40;1.27;;;21.10;88.80;;;;;;5068793;28;20115;-64
2022/06/28 11:01:39;;;;;;;8.43;1.33;;;21.20;88.40;;;;;;5066273;28;20113;-64
2022/06/28 11:04:11;;;;;;;6.25;1.30;;;21.20;88.00;;;;;;5065528;28;20033;-64
2022/06/28 11:07:02;;;;;;;7.50;1.92;;;21.30;87.90;;;;;;5068240;28;20125;-64
2022/06/28 11:09:47;;;;;;;4.80;1.00;;;21.40;87.50;;;;;;5064945;28;20169;-64
2022/06/28 11:12:36;;;;;;;5.03;1.77;;;21.50;87.50;;;;;;5057106;28;20115;-65
2022/06/28 11:15:05;;;;;;;3.95;0.90;;;21.60;87.20;;;;;;5062029;28;20573;-65
2022/06/28 11:17:44;;;;;;;5.85;1.52;;;21.70;87.40;;;;;;5071366;28;20043;-64
2022/06/28 11:20:11;;;;;;;4.15;1.52;;;21.70;86.90;;;;;;5061553;28;20481;-66
2022/06/28 11:22:47;;;;;;;8.90;1.55;;;21.70;86.70;;;;;;5062904;28;20033;-65
2022/06/28 11:25:24;;;;;;;11.35;1.77;;;21.80;87.00;;;;;;5066243;28;20029;-65
2022/06/28 11:27:56;;;;;;;10.40;2.38;;;21.90;85.90;;;;;;5065435;28;20361;-65
2022/06/28 11:30:27;;;;;;;11.05;1.60;;;21.90;85.20;;;;;;5069735;28;20020;-66
2022/06/28 11:32:58;;;;;;;5.80;2.00;;;22.00;83.20;;;;;;5068903;28;20090;-65
2022/06/28 11:35:27;;;;;;;4.13;1.60;;;22.10;81.90;;;;;;5067701;28;20025;-65
2022/06/28 11:37:54;;;;;;;8.35;1.33;;;22.20;83.80;;;;;;5066822;28;20142;-65
2022/06/28 11:40:22;;;;;;;6.43;1.55;;;22.30;85.00;;;;;;5067770;28;20028;-66
2022/06/28 11:43:00;;;;;;;7.85;1.58;;;22.30;83.60;;;;;;5064484;28;20054;-66
2022/06/28 11:45:29;;;;;;;4.18;1.23;;;22.40;83.60;;;;;;5064997;28;20052;-66
2022/06/28 11:47:55;;;;;;;6.93;1.70;;;22.40;82.60;;;;;;5066596;28;20017;-65
2022/06/28 11:50:21;;;;;;;7.65;2.53;;;22.40;83.00;;;;;;5068618;28;20032;-66
2022/06/28 11:52:55;;;;;;;9.30;2.55;;;22.50;83.30;;;;;;5066903;28;20028;-66
2022/06/28 11:55:44;;;;;;;9.32;1.65;;;22.50;82.90;;;;;;5066387;28;20317;-66
2022/06/28 11:58:11;;;;;;;11.77;2.00;;;22.50;82.40;;;;;;5071897;28;20036;-65
2022/06/28 12:00:36;;;;;;;7.95;1.55;;;22.50;80.50;;;;;;5071628;28;20537;-65
2022/06/28 12:03:14;;;;;;;6.72;1.65;;;22.60;80.50;;;;;;5071093;28;20025;-66
2022/06/28 12:05:40;;;;;;;16.67;2.20;;;22.70;81.10;;;;;;5065567;28;20133;-66
2022/06/28 12:08:07;;;;;;;2.72;0.68;;;22.70;79.40;;;;;;5070342;28;20024;-66
2022/06/28 12:10:34;;;;;;;6.47;1.67;;;22.70;83.70;;;;;;5068755;28;20146;-65
2022/06/28 12:13:10;;;;;;;8.07;1.77;;;22.70;83.40;;;;;;5070803;28;20033;-66
2022/06/28 12:15:36;;;;;;;6.47;1.83;;;22.80;82.70;;;;;;5070255;28;20033;-65
2022/06/28 12:18:05;;;;;;;8.15;1.40;;;22.90;82.10;;;;;;5072377;28;20028;-65
2022/06/28 12:20:33;;;;;;;12.77;1.95;;;22.90;80.80;;;;;;5058230;28;20025;-65
2022/06/28 12:23:04;;;;;;;5.65;1.30;;;23.00;81.90;;;;;;5065293;28;20059;-65
2022/06/28 12:25:30;;;;;;;3.63;1.23;;;23.00;83.00;;;;;;5068283;28;20107;-65
2022/06/28 12:27:56;;;;;;;6.60;1.50;;;23.00;83.10;;;;;;5055820;28;20146;-67
2022/06/28 12:30:22;;;;;;;9.38;2.00;;;23.10;83.20;;;;;;5068459;28;20185;-65
2022/06/28 12:32:49;;;;;;;5.78;1.67;;;23.10;82.00;;;;;;5069621;28;20131;-65
2022/06/28 12:35:16;;;;;;;11.25;2.00;;;23.10;81.10;;;;;;5062768;28;20039;-65
2022/06/28 12:37:42;;;;;;;7.25;1.80;;;23.20;79.10;;;;;;5066246;28;20063;-65
2022/06/28 12:40:09;;;;;;;6.28;1.00;;;23.30;79.20;;;;;;5065481;28;20012;-65
2022/06/28 12:42:35;;;;;;;11.82;1.75;;;23.40;82.00;;;;;;5066362;28;20044;-65
2022/06/28 12:45:02;;;;;;;6.95;1.80;;;23.40;82.40;;;;;;5061673;28;20020;-65
2022/06/28 12:47:29;;;;;;;3.28;1.08;;;23.40;82.50;;;;;;5063589;28;20040;-65
2022/06/28 12:49:54;;;;;;;6.13;1.50;;;23.50;83.60;;;;;;5063300;28;20032;-65
2022/06/28 12:52:20;;;;;;;8.55;1.70;;;23.60;82.70;;;;;;5065829;28;20383;-65
2022/06/28 12:54:46;;;;;;;6.63;2.25;;;23.60;81.40;;;;;;5067182;28;20028;-65
2022/06/28 12:57:13;;;;;;;6.63;1.85;;;23.60;81.00;;;;;;5066590;28;20096;-65
2022/06/28 12:59:40;;;;;;;7.93;1.88;;;23.70;80.20;;;;;;5068072;28;20016;-65
2022/06/28 13:02:05;;;;;;;8.43;1.90;;;23.70;77.30;;;;;;5064742;28;20115;-65
2022/06/28 13:04:31;;;;;;;11.05;1.90;;;23.80;75.80;;;;;;5066034;28;20842;-65
2022/06/28 13:06:59;;;;;;;8.23;1.88;;;23.90;75.50;;;;;;5060828;28;20125;-65
2022/06/28 13:09:25;;;;;;;10.05;2.10;;;24.00;76.20;;;;;;5061396;28;20056;-65
2022/06/28 13:11:51;;;;;;;6.43;1.35;;;24.10;76.20;;;;;;5062799;28;20063;-65
2022/06/28 13:14:16;;;;;;;8.05;1.75;;;24.20;77.60;;;;;;5063567;28;20190;-65